createdAt,value
2022-08-30T00:01:03.020Z,100796.03
2022-08-30T00:03:30.487Z,100794.56
2022-08-30T00:05:56.934Z,100795.72
2022-08-30T00:08:23.255Z,100800.44
2022-08-30T00:10:51.180Z,100793.56
2022-08-30T00:13:17.642Z,100804.28
2022-08-30T00:15:44.077Z,100801.50
2022-08-30T00:18:10.453Z,100807.34
2022-08-30T00:20:36.743Z,100808.81
2022-08-30T00:23:03.036Z,100802.72
2022-08-30T00:25:29.344Z,100810.06
2022-08-30T00:27:55.652Z,100804.66
2022-08-30T00:30:21.963Z,100807.97
2022-08-30T00:32:48.255Z,100807.13
2022-08-30T00:35:14.563Z,100807.25
2022-08-30T00:37:40.861Z,100805.53
2022-08-30T00:40:07.222Z,100806.91
2022-08-30T00:42:33.755Z,100811.81
2022-08-30T00:45:00.121Z,100816.91
2022-08-30T00:47:26.431Z,100817.25
2022-08-30T00:49:54.164Z,100818.19
2022-08-30T00:52:20.455Z,100809.59
2022-08-30T00:54:46.819Z,100809.59
2022-08-30T00:57:13.106Z,100803.59
2022-08-30T00:59:39.437Z,100806.69
2022-08-30T01:02:05.757Z,100811.84
2022-08-30T01:04:32.314Z,100807.88
2022-08-30T01:06:59.091Z,100800.03
2022-08-30T01:09:25.440Z,100807.69
2022-08-30T01:11:51.903Z,100803.25
2022-08-30T01:14:18.203Z,100806.97
2022-08-30T01:16:44.510Z,100803.00
2022-08-30T01:19:10.803Z,100807.41
2022-08-30T01:21:39.076Z,100807.28
2022-08-30T01:24:05.376Z,100804.72
2022-08-30T01:26:31.668Z,100802.06
2022-08-30T01:28:57.985Z,100801.88
2022-08-30T01:31:24.361Z,100803.31
2022-08-30T01:33:51.057Z,100798.28
2022-08-30T01:36:17.436Z,100793.66
2022-08-30T01:38:43.755Z,100801.31
2022-08-30T01:41:10.104Z,100808.06
2022-08-30T01:43:36.750Z,100800.94
2022-08-30T01:46:04.073Z,100805.16
2022-08-30T01:48:31.143Z,100807.91
2022-08-30T01:50:57.680Z,100807.06
2022-08-30T01:53:23.981Z,100801.31
2022-08-30T01:55:50.292Z,100814.22
2022-08-30T01:58:16.590Z,100809.06
2022-08-30T02:00:42.887Z,100809.19
2022-08-30T02:03:09.184Z,100808.19
2022-08-30T02:05:35.503Z,100809.66
2022-08-30T02:08:01.811Z,100814.38
2022-08-30T02:10:28.604Z,100815.56
2022-08-30T02:12:54.917Z,100806.72
2022-08-30T02:15:21.211Z,100804.13
2022-08-30T02:17:47.567Z,100812.38
2022-08-30T02:20:13.859Z,100817.38
2022-08-30T02:22:40.225Z,100810.94
2022-08-30T02:25:20.891Z,100813.25
2022-08-30T02:27:47.680Z,100814.97
2022-08-30T02:30:13.968Z,100817.94
2022-08-30T02:32:41.428Z,100812.06
2022-08-30T02:35:07.736Z,100815.59
2022-08-30T02:37:34.032Z,100808.84
2022-08-30T02:40:00.410Z,100809.47
2022-08-30T02:42:26.750Z,100816.72
2022-08-30T02:44:53.068Z,100807.72
2022-08-30T02:47:19.386Z,100815.59
2022-08-30T02:49:45.675Z,100809.72
2022-08-30T02:52:11.968Z,100814.38
2022-08-30T02:54:38.269Z,100807.00
2022-08-30T02:57:06.275Z,100806.13
2022-08-30T02:59:32.529Z,100814.97
2022-08-30T03:01:58.851Z,100807.72
2022-08-30T03:04:26.870Z,100808.34
2022-08-30T03:06:53.407Z,100813.41
2022-08-30T03:09:19.725Z,100809.47
2022-08-30T03:11:46.031Z,100812.28
2022-08-30T03:14:12.361Z,100814.38
2022-08-30T03:16:39.536Z,100816.94
2022-08-30T03:19:05.974Z,100816.56
2022-08-30T03:21:32.282Z,100816.84
2022-08-30T03:23:58.585Z,100814.38
2022-08-30T03:26:24.887Z,100815.34
2022-08-30T03:28:51.186Z,100822.88
2022-08-30T03:31:17.523Z,100813.03
2022-08-30T03:33:43.878Z,100812.06
2022-08-30T03:36:10.192Z,100818.31
2022-08-30T03:38:36.476Z,100812.19
2022-08-30T03:41:02.776Z,100809.22
2022-08-30T03:43:30.278Z,100812.19
2022-08-30T03:45:56.999Z,100810.47
2022-08-30T03:48:23.351Z,100793.91
2022-08-30T03:50:49.695Z,100799.16
2022-08-30T03:53:16.116Z,100798.41
2022-08-30T03:55:42.567Z,100804.19
2022-08-30T03:58:08.887Z,100804.94
2022-08-30T04:00:35.262Z,100794.97
2022-08-30T04:03:01.666Z,100803.09
2022-08-30T04:05:27.961Z,100807.28
2022-08-30T04:07:54.260Z,100799.03
2022-08-30T04:10:23.383Z,100795.25
2022-08-30T04:12:49.970Z,100802.22
2022-08-30T04:15:16.364Z,100799.03
2022-08-30T04:17:42.651Z,100808.84
2022-08-30T04:20:08.975Z,100813.03
2022-08-30T04:22:36.798Z,100820.19
2022-08-30T04:25:03.141Z,100818.81
2022-08-30T04:27:29.445Z,100825.78
2022-08-30T04:29:56.264Z,100820.28
2022-08-30T04:32:22.712Z,100822.03
2022-08-30T04:34:52.238Z,100821.78
2022-08-30T04:37:18.548Z,100819.81
2022-08-30T04:39:46.805Z,100826.69
2022-08-30T04:42:13.146Z,100822.00
2022-08-30T04:44:39.455Z,100837.97
2022-08-30T04:47:05.768Z,100834.78
2022-08-30T04:49:35.069Z,100836.50
2022-08-30T04:52:01.376Z,100844.13
2022-08-30T04:54:27.679Z,100842.16
2022-08-30T04:56:53.969Z,100846.47
2022-08-30T04:59:20.295Z,100845.34
2022-08-30T05:01:46.723Z,100847.66
2022-08-30T05:04:13.155Z,100846.56
2022-08-30T05:06:39.460Z,100843.00
2022-08-30T05:09:05.789Z,100850.84
2022-08-30T05:11:32.178Z,100855.53
2022-08-30T05:13:58.475Z,100856.16
2022-08-30T05:16:24.807Z,100854.19
2022-08-30T05:18:51.729Z,100856.63
2022-08-30T05:21:18.034Z,100863.41
2022-08-30T05:23:44.338Z,100858.59
2022-08-30T05:26:10.672Z,100859.13
2022-08-30T05:28:36.964Z,100862.03
2022-08-30T05:31:03.417Z,100867.06
2022-08-30T05:33:29.933Z,100867.34
2022-08-30T05:35:56.230Z,100868.44
2022-08-30T05:38:22.528Z,100876.75
2022-08-30T05:40:50.082Z,100871.16
2022-08-30T05:43:16.381Z,100869.88
2022-08-30T05:45:42.686Z,100868.09
2022-08-30T05:48:09.002Z,100867.72
2022-08-30T05:50:40.107Z,100873.31
2022-08-30T05:53:06.473Z,100861.31
2022-08-30T05:55:32.933Z,100873.53
2022-08-30T05:58:00.785Z,100868.78
2022-08-30T06:00:27.117Z,100868.88
2022-08-30T06:02:53.922Z,100876.22
2022-08-30T06:05:20.628Z,100872.44
2022-08-30T06:07:47.151Z,100882.44
2022-08-30T06:10:13.922Z,100877.06
2022-08-30T06:12:43.130Z,100886.03
2022-08-30T06:15:09.444Z,100882.13
2022-08-30T06:17:35.748Z,100880.66
2022-08-30T06:20:02.041Z,100878.91
2022-08-30T06:22:28.352Z,100871.97
2022-08-30T06:24:57.445Z,100875.50
2022-08-30T06:27:24.230Z,100872.44
2022-08-30T06:29:50.524Z,100868.47
2022-08-30T06:32:16.914Z,100867.31
2022-08-30T06:34:43.209Z,100879.25
2022-08-30T06:37:09.499Z,100860.88
2022-08-30T06:39:35.798Z,100874.63
2022-08-30T06:42:02.093Z,100871.81
2022-08-30T06:44:28.415Z,100871.81
2022-08-30T06:46:56.457Z,100870.31
2022-08-30T06:49:22.861Z,100867.75
2022-08-30T06:51:49.152Z,100861.34
2022-08-30T06:54:15.440Z,100856.34
2022-08-30T06:56:48.741Z,100868.22
2022-08-30T06:59:24.283Z,100854.22
2022-08-30T07:01:50.646Z,100864.06
2022-08-30T07:04:17.016Z,100862.81
2022-08-30T07:06:43.325Z,100865.94
2022-08-30T07:09:09.643Z,100865.09
2022-08-30T07:11:36.284Z,100860.94
2022-08-30T07:14:02.608Z,100864.81
2022-08-30T07:16:28.920Z,100861.38
2022-08-30T07:18:55.338Z,100861.38
2022-08-30T07:21:21.729Z,100866.47
2022-08-30T07:23:53.422Z,100859.47
2022-08-30T07:26:20.243Z,100864.84
2022-08-30T07:28:46.600Z,100868.66
2022-08-30T07:31:13.418Z,100868.72
2022-08-30T07:33:40.500Z,100879.78
2022-08-30T07:36:07.139Z,100883.63
2022-08-30T07:38:33.447Z,100889.19
2022-08-30T07:41:01.144Z,100880.78
2022-08-30T07:43:27.585Z,100878.00
2022-08-30T07:45:53.909Z,100884.84
2022-08-30T07:48:20.219Z,100891.03
2022-08-30T07:50:46.509Z,100882.03
2022-08-30T07:53:12.963Z,100880.06
2022-08-30T07:55:39.376Z,100884.81
2022-08-30T07:58:05.678Z,100881.03
2022-08-30T08:00:31.979Z,100879.22
2022-08-30T08:02:58.336Z,100881.81
2022-08-30T08:05:25.027Z,100879.03
2022-08-30T08:07:51.390Z,100878.91
2022-08-30T08:10:18.789Z,100878.06
2022-08-30T08:12:45.103Z,100874.63
2022-08-30T08:15:11.644Z,100867.22
2022-08-30T08:17:37.939Z,100878.47
2022-08-30T08:20:04.227Z,100867.25
2022-08-30T08:22:30.662Z,100875.28
2022-08-30T08:24:57.216Z,100870.94
2022-08-30T08:27:24.732Z,100877.47
2022-08-30T08:29:51.045Z,100881.19
2022-08-30T08:32:17.345Z,100873.66
2022-08-30T08:34:43.643Z,100868.09
2022-08-30T08:37:09.942Z,100868.03
2022-08-30T08:39:37.001Z,100880.88
2022-08-30T08:42:04.016Z,100878.13
2022-08-30T08:44:34.316Z,100876.59
2022-08-30T08:47:01.005Z,100876.84
2022-08-30T08:49:29.485Z,100872.31
2022-08-30T08:52:14.506Z,100869.94
2022-08-30T08:54:40.809Z,100869.25
2022-08-30T08:57:07.109Z,100858.69
2022-08-30T08:59:33.399Z,100859.34
2022-08-30T09:02:00.802Z,100858.16
2022-08-30T09:04:27.467Z,100866.56
2022-08-30T09:06:53.810Z,100866.00
2022-08-30T09:09:20.156Z,100851.78
2022-08-30T09:11:46.984Z,100855.38
2022-08-30T09:17:02.944Z,100855.91
2022-08-30T09:19:30.627Z,100864.31
2022-08-30T09:22:00.779Z,100860.75
2022-08-30T09:24:27.063Z,100853.03
2022-08-30T09:26:53.348Z,100853.16
2022-08-30T09:29:19.635Z,100841.88
2022-08-30T09:31:46.451Z,100848.56
2022-08-30T09:34:12.765Z,100851.13
2022-08-30T09:36:39.073Z,100850.44
2022-08-30T09:39:05.373Z,100841.22
2022-08-30T09:41:31.930Z,100840.41
2022-08-30T09:43:58.239Z,100843.03
2022-08-30T09:46:24.622Z,100844.47
2022-08-30T09:48:50.957Z,100851.56
2022-08-30T09:51:17.252Z,100839.63
2022-08-30T09:53:55.707Z,100837.63
2022-08-30T09:56:29.857Z,100837.94
2022-08-30T09:58:56.356Z,100833.53
2022-08-30T10:01:22.911Z,100828.59
2022-08-30T10:03:49.394Z,100830.25
2022-08-30T10:06:16.423Z,100826.00
2022-08-30T10:08:42.756Z,100826.81
2022-08-30T10:11:10.682Z,100834.91
2022-08-30T10:13:36.933Z,100834.50
2022-08-30T10:16:03.267Z,100832.91
2022-08-30T10:18:29.594Z,100832.75
2022-08-30T10:20:55.898Z,100827.03
2022-08-30T10:23:22.211Z,100823.00
2022-08-30T10:25:49.952Z,100819.41
2022-08-30T10:28:16.172Z,100821.78
2022-08-30T10:30:42.523Z,100825.84
2022-08-30T10:33:09.076Z,100820.44
2022-08-30T10:35:39.179Z,100826.03
2022-08-30T10:38:05.520Z,100823.91
2022-08-30T10:40:50.627Z,100813.59
2022-08-30T10:43:17.577Z,100819.88
2022-08-30T10:45:44.477Z,100824.75
2022-08-30T10:48:10.785Z,100823.06
2022-08-30T10:53:24.743Z,100814.31
2022-08-30T10:55:51.089Z,100818.78
2022-08-30T10:58:18.192Z,100818.97
2022-08-30T11:00:44.649Z,100817.75
2022-08-30T11:03:10.975Z,100815.84
2022-08-30T11:05:37.356Z,100805.88
2022-08-30T11:08:08.256Z,100812.56
2022-08-30T11:10:47.767Z,100812.72
2022-08-30T11:13:16.477Z,100807.09
2022-08-30T11:15:42.895Z,100810.66
2022-08-30T11:18:09.188Z,100815.19
2022-08-30T11:20:36.021Z,100801.06
2022-08-30T11:23:02.379Z,100801.13
2022-08-30T11:25:28.867Z,100802.03
2022-08-30T11:27:58.733Z,100791.84
2022-08-30T11:30:26.595Z,100791.38
2022-08-30T11:32:53.541Z,100789.31
2022-08-30T11:35:20.580Z,100796.97
2022-08-30T11:37:48.824Z,100799.13
2022-08-30T11:40:17.486Z,100792.84
2022-08-30T11:42:48.288Z,100796.13
2022-08-30T11:45:15.807Z,100798.81
2022-08-30T11:47:43.329Z,100789.59
2022-08-30T11:50:12.374Z,100791.44
2022-08-30T11:52:39.209Z,100779.25
2022-08-30T11:55:06.065Z,100781.53
2022-08-30T11:57:33.238Z,100789.34
2022-08-30T11:59:59.609Z,100779.81
2022-08-30T12:02:25.953Z,100790.09
2022-08-30T12:04:56.168Z,100798.53
2022-08-30T12:07:22.905Z,100784.88
2022-08-30T12:09:49.453Z,100778.75
2022-08-30T12:12:15.788Z,100782.91
2022-08-30T12:14:42.138Z,100773.84
2022-08-30T12:17:27.196Z,100767.06
2022-08-30T12:19:53.498Z,100766.47
2022-08-30T12:22:19.977Z,100764.63
2022-08-30T12:24:46.336Z,100766.78
2022-08-30T12:27:12.690Z,100766.06
2022-08-30T12:29:41.785Z,100772.81
2022-08-30T12:32:08.622Z,100778.06
2022-08-30T12:34:34.951Z,100769.91
2022-08-30T12:37:02.915Z,100780.63
2022-08-30T12:39:30.883Z,100774.28
2022-08-30T12:41:57.229Z,100762.69
2022-08-30T12:44:23.577Z,100757.00
2022-08-30T12:46:49.903Z,100769.47
2022-08-30T12:49:16.205Z,100767.25
2022-08-30T12:51:42.495Z,100761.44
2022-08-30T12:54:08.817Z,100761.06
2022-08-30T12:56:50.097Z,100762.50
2022-08-30T12:59:16.705Z,100758.81
2022-08-30T13:01:44.811Z,100764.94
2022-08-30T13:04:14.296Z,100757.38
2022-08-30T13:06:42.215Z,100758.59
2022-08-30T13:09:08.571Z,100756.97
2022-08-30T13:11:34.948Z,100753.75
2022-08-30T13:14:01.250Z,100760.56
2022-08-30T13:16:29.390Z,100751.91
2022-08-30T13:18:56.124Z,100746.34
2022-08-30T13:21:22.461Z,100751.44
2022-08-30T13:23:48.759Z,100755.09
2022-08-30T13:26:15.252Z,100752.09
2022-08-30T13:28:49.611Z,100750.31
2022-08-30T13:31:16.080Z,100743.19
2022-08-30T13:33:45.504Z,100741.31
2022-08-30T13:36:11.858Z,100742.91
2022-08-30T13:38:38.327Z,100736.88
2022-08-30T13:41:04.631Z,100735.81
2022-08-30T13:43:31.261Z,100739.44
2022-08-30T13:46:17.515Z,100735.16
2022-08-30T13:48:43.856Z,100742.16
2022-08-30T13:51:10.335Z,100738.00
2022-08-30T13:53:53.128Z,100741.56
2022-08-30T13:56:19.921Z,100739.31
2022-08-30T13:58:47.633Z,100743.19
2022-08-30T14:01:14.007Z,100732.50
2022-08-30T14:04:13.188Z,100722.19
2022-08-30T14:06:33.096Z,100723.06
2022-08-30T14:09:03.743Z,100720.22
2022-08-30T14:11:30.582Z,100724.44
2022-08-30T14:16:43.262Z,100729.19
2022-08-30T14:19:09.619Z,100726.75
2022-08-30T14:21:35.927Z,100724.78
2022-08-30T14:24:04.683Z,100729.56
2022-08-30T14:26:32.740Z,100720.50
2022-08-30T14:29:02.835Z,100721.34
2022-08-30T14:31:30.092Z,100712.47
2022-08-30T14:33:59.267Z,100718.59
2022-08-30T14:36:25.590Z,100712.94
2022-08-30T14:38:51.958Z,100721.56
2022-08-30T14:41:18.279Z,100711.19
2022-08-30T14:43:44.604Z,100714.03
2022-08-30T14:46:11.024Z,100719.19
2022-08-30T14:48:37.397Z,100717.00
2022-08-30T14:51:04.468Z,100710.75
2022-08-30T14:53:30.775Z,100708.63
2022-08-30T14:55:57.063Z,100713.97
2022-08-30T14:58:23.433Z,100704.28
2022-08-30T15:00:49.744Z,100705.44
2022-08-30T15:03:16.100Z,100707.41
2022-08-30T15:05:42.668Z,100699.50
2022-08-30T15:08:10.016Z,100701.53
2022-08-30T15:10:36.993Z,100703.94
2022-08-30T15:13:04.772Z,100707.47
2022-08-30T15:15:31.236Z,100697.91
2022-08-30T15:17:57.539Z,100698.66
2022-08-30T15:20:23.849Z,100698.53
2022-08-30T15:22:50.186Z,100696.97
2022-08-30T15:25:18.669Z,100696.03
2022-08-30T15:27:49.284Z,100695.91
2022-08-30T15:30:15.604Z,100693.31
2022-08-30T15:32:45.995Z,100697.50
2022-08-30T15:35:12.302Z,100693.06
2022-08-30T15:37:38.606Z,100696.06
2022-08-30T15:40:04.985Z,100680.59
2022-08-30T15:42:31.939Z,100678.16
2022-08-30T15:44:59.324Z,100683.50
2022-08-30T15:47:26.157Z,100689.56
2022-08-30T15:49:52.475Z,100682.09
2022-08-30T15:52:18.832Z,100687.19
2022-08-30T15:54:49.419Z,100691.06
2022-08-30T15:57:16.207Z,100692.50
2022-08-30T15:59:43.514Z,100685.78
2022-08-30T16:02:09.866Z,100691.94
2022-08-30T16:04:37.125Z,100687.97
2022-08-30T16:07:03.424Z,100696.34
2022-08-30T16:09:32.433Z,100696.09
2022-08-30T16:11:59.089Z,100694.88
2022-08-30T16:14:25.804Z,100698.84
2022-08-30T16:16:52.116Z,100696.47
2022-08-30T16:19:18.432Z,100693.56
2022-08-30T16:21:44.882Z,100692.63
2022-08-30T16:24:13.856Z,100693.47
2022-08-30T16:26:40.481Z,100688.28
2022-08-30T16:29:07.598Z,100692.34
2022-08-30T16:31:35.260Z,100685.03
2022-08-30T16:34:02.347Z,100681.09
2022-08-30T16:36:30.133Z,100679.94
2022-08-30T16:38:58.403Z,100673.16
2022-08-30T16:41:24.894Z,100680.78
2022-08-30T16:43:53.598Z,100681.66
2022-08-30T16:46:22.940Z,100688.66
2022-08-30T16:48:53.408Z,100681.50
2022-08-30T16:51:19.769Z,100678.47
2022-08-30T16:53:46.390Z,100681.97
2022-08-30T16:56:12.705Z,100674.75
2022-08-30T16:58:39.081Z,100677.16
2022-08-30T17:01:05.582Z,100674.31
2022-08-30T17:03:31.933Z,100675.50
2022-08-30T17:05:58.237Z,100669.38
2022-08-30T17:08:24.823Z,100681.00
2022-08-30T17:10:51.119Z,100681.00
2022-08-30T17:13:17.904Z,100680.59
2022-08-30T17:15:45.819Z,100687.88
2022-08-30T17:18:12.308Z,100696.75
2022-08-30T17:20:40.494Z,100692.31
2022-08-30T17:23:10.785Z,100686.81
2022-08-30T17:25:37.111Z,100689.16
2022-08-30T17:28:03.674Z,100686.72
2022-08-30T17:30:31.339Z,100701.47
2022-08-30T17:32:57.644Z,100694.25
2022-08-30T17:35:24.306Z,100695.03
2022-08-30T17:37:51.393Z,100697.09
2022-08-30T17:40:17.734Z,100703.47
2022-08-30T17:42:45.039Z,100710.38
2022-08-30T17:45:11.334Z,100699.63
2022-08-30T17:47:37.654Z,100701.69
2022-08-30T17:50:05.103Z,100711.34
2022-08-30T17:52:32.044Z,100703.84
2022-08-30T17:54:59.703Z,100712.81
2022-08-30T17:57:26.070Z,100707.50
2022-08-30T17:59:52.381Z,100711.69
2022-08-30T18:02:21.475Z,100719.91
2022-08-30T18:04:57.775Z,100714.63
2022-08-30T18:07:25.567Z,100727.31
2022-08-30T18:09:53.269Z,100722.75
2022-08-30T18:12:20.176Z,100726.94
2022-08-30T18:14:47.114Z,100728.94
2022-08-30T18:17:19.354Z,100729.63
2022-08-30T18:19:46.851Z,100735.28
2022-08-30T18:22:13.157Z,100727.41
2022-08-30T18:24:39.471Z,100733.06
2022-08-30T18:27:05.936Z,100731.59
2022-08-30T18:29:32.321Z,100739.06
2022-08-30T18:31:58.629Z,100736.53
2022-08-30T18:34:24.947Z,100733.66
2022-08-30T18:36:51.320Z,100735.38
2022-08-30T18:39:18.892Z,100741.19
2022-08-30T18:41:46.902Z,100735.56
2022-08-30T18:44:27.268Z,100745.94
2022-08-30T18:46:56.056Z,100751.56
2022-08-30T18:49:23.213Z,100747.63
2022-08-30T18:51:49.960Z,100749.97
2022-08-30T18:54:16.453Z,100758.19
2022-08-30T18:56:42.765Z,100752.72
2022-08-30T18:59:12.084Z,100753.38
2022-08-30T19:01:38.781Z,100748.94
2022-08-30T19:04:06.891Z,100762.44
2022-08-30T19:06:34.233Z,100763.38
2022-08-30T19:09:00.555Z,100770.34
2022-08-30T19:11:26.948Z,100762.75
2022-08-30T19:13:53.770Z,100775.34
2022-08-30T19:16:20.072Z,100755.84
2022-08-30T19:18:46.735Z,100759.22
2022-08-30T19:21:13.527Z,100757.63
2022-08-30T19:23:40.085Z,100763.25
2022-08-30T19:26:06.429Z,100761.53
2022-08-30T19:28:34.602Z,100759.13
2022-08-30T19:31:01.001Z,100761.34
2022-08-30T19:33:27.328Z,100764.56
2022-08-30T19:35:54.022Z,100764.91
2022-08-30T19:38:20.328Z,100772.66
2022-08-30T19:40:49.095Z,100762.91
2022-08-30T19:43:18.981Z,100772.44
2022-08-30T19:45:45.465Z,100771.91
2022-08-30T19:48:12.233Z,100775.72
2022-08-30T19:50:39.659Z,100760.50
2022-08-30T19:53:08.958Z,100766.25
2022-08-30T19:55:37.200Z,100761.63
2022-08-30T19:58:04.387Z,100762.03
2022-08-30T20:00:31.322Z,100764.53
2022-08-30T20:02:57.963Z,100758.13
2022-08-30T20:05:24.299Z,100766.16
2022-08-30T20:07:51.126Z,100769.72
2022-08-30T20:10:19.752Z,100769.59
2022-08-30T20:12:48.323Z,100761.81
2022-08-30T20:15:16.151Z,100766.16
2022-08-30T20:18:02.603Z,100766.91
2022-08-30T20:20:28.781Z,100761.28
2022-08-30T20:22:55.110Z,100761.19
2022-08-30T20:25:25.181Z,100775.00
2022-08-30T20:27:51.480Z,100761.13
2022-08-30T20:30:17.784Z,100762.34
2022-08-30T20:32:46.548Z,100763.06
2022-08-30T20:35:12.963Z,100767.19
2022-08-30T20:37:40.305Z,100770.50
2022-08-30T20:40:06.920Z,100764.63
2022-08-30T20:42:33.274Z,100773.34
2022-08-30T20:45:00.172Z,100776.88
2022-08-30T20:47:26.478Z,100769.16
2022-08-30T20:49:52.949Z,100773.16
2022-08-30T20:52:19.250Z,100779.78
2022-08-30T20:54:45.577Z,100783.69
2022-08-30T20:57:11.907Z,100785.50
2022-08-30T20:59:38.735Z,100778.75
2022-08-30T21:02:05.962Z,100788.91
2022-08-30T21:04:32.715Z,100793.91
2022-08-30T21:06:59.045Z,100790.16
2022-08-30T21:09:25.451Z,100788.25
2022-08-30T21:11:51.798Z,100794.03
2022-08-30T21:14:18.407Z,100796.13
2022-08-30T21:16:45.013Z,100793.72
2022-08-30T21:19:11.362Z,100788.81
2022-08-30T21:21:37.683Z,100796.09
2022-08-30T21:24:06.639Z,100790.59
2022-08-30T21:26:33.250Z,100792.00
2022-08-30T21:28:59.543Z,100786.31
2022-08-30T21:31:25.890Z,100794.03
2022-08-30T21:33:52.277Z,100788.16
2022-08-30T21:36:37.502Z,100792.09
2022-08-30T21:39:03.799Z,100788.59
2022-08-30T21:41:31.427Z,100789.13
2022-08-30T21:43:57.973Z,100788.41
2022-08-30T21:46:24.903Z,100794.78
2022-08-30T21:48:51.176Z,100794.03
2022-08-30T21:51:17.477Z,100796.75
2022-08-30T21:53:43.777Z,100799.03
2022-08-30T21:56:12.983Z,100800.00
2022-08-30T21:58:40.051Z,100796.69
2022-08-30T22:01:07.537Z,100803.81
2022-08-30T22:03:34.219Z,100809.16
2022-08-30T22:06:00.529Z,100800.38
2022-08-30T22:08:26.834Z,100809.72
2022-08-30T22:10:53.324Z,100802.19
2022-08-30T22:13:19.773Z,100814.25
2022-08-30T22:15:46.131Z,100815.34
2022-08-30T22:18:12.483Z,100813.16
2022-08-30T22:20:41.151Z,100819.31
2022-08-30T22:23:07.791Z,100818.72
2022-08-30T22:25:34.099Z,100818.00
2022-08-30T22:28:00.406Z,100814.69
2022-08-30T22:30:27.791Z,100810.66
2022-08-30T22:32:54.086Z,100815.41
2022-08-30T22:35:20.856Z,100807.44
2022-08-30T22:37:53.132Z,100812.72
2022-08-30T22:40:20.032Z,100802.88
2022-08-30T22:42:48.495Z,100810.88
2022-08-30T22:45:14.904Z,100806.16
2022-08-30T22:47:41.198Z,100804.28
2022-08-30T22:50:07.500Z,100809.00
2022-08-30T22:52:33.881Z,100807.19
2022-08-30T22:55:00.189Z,100823.88
2022-08-30T22:57:26.799Z,100817.81
2022-08-30T22:59:53.160Z,100828.22
2022-08-30T23:02:19.513Z,100835.28
2022-08-30T23:04:45.885Z,100828.44
2022-08-30T23:07:12.189Z,100833.66
2022-08-30T23:09:38.486Z,100828.66
2022-08-30T23:12:06.250Z,100835.38
2022-08-30T23:14:32.557Z,100832.53
2022-08-30T23:16:58.901Z,100831.50
2022-08-30T23:19:26.630Z,100843.38
2022-08-30T23:21:52.927Z,100827.25
2022-08-30T23:24:37.668Z,100824.94
2022-08-30T23:27:25.969Z,100828.81
2022-08-30T23:30:10.835Z,100827.91
2022-08-30T23:32:55.693Z,100823.91
2022-08-30T23:35:40.981Z,100818.94
2022-08-30T23:38:25.821Z,100819.94
2022-08-30T23:41:10.617Z,100825.09
2022-08-30T23:43:55.679Z,100818.34
2022-08-30T23:46:40.545Z,100818.22
2022-08-30T23:49:25.516Z,100822.94
2022-08-30T23:52:10.351Z,100829.28
2022-08-30T23:54:57.314Z,100820.00
2022-08-30T23:57:42.303Z,100828.25
